sensor_id;sensor_type;location;lat;lon;timestamp;pressure;altitude;pressure_sealevel;temperature;humidity
40596;BME280;26304;48.794;9.820;2023-04-04T00:02:53;97055.53;;;16.08;47.22
40596;BME280;26304;48.794;9.820;2023-04-04T00:08:35;97050.97;;;16.05;47.01
40596;BME280;26304;48.794;9.820;2023-04-04T00:14:18;97046.84;;;16.04;47.13
40596;BME280;26304;48.794;9.820;2023-04-04T00:20:01;97042.25;;;16.01;47.01
40596;BME280;26304;48.794;9.820;2023-04-04T00:25:48;97036.56;;;15.98;47.01
40596;BME280;26304;48.794;9.820;2023-04-04T00:31:31;97027.53;;;15.96;47.52
40596;BME280;26304;48.794;9.820;2023-04-04T00:37:15;97029.38;;;15.95;47.07
40596;BME280;26304;48.794;9.820;2023-04-04T00:42:58;97030.50;;;15.94;47.29
40596;BME280;26304;48.794;9.820;2023-04-04T00:48:41;97020.66;;;15.91;47.55
40596;BME280;26304;48.794;9.820;2023-04-04T00:54:25;97013.91;;;15.90;47.34
40596;BME280;26304;48.794;9.820;2023-04-04T01:00:09;97004.06;;;15.87;47.59
40596;BME280;26304;48.794;9.820;2023-04-04T01:05:53;97004.06;;;15.87;47.07
40596;BME280;26304;48.794;9.820;2023-04-04T01:11:37;96998.00;;;15.83;47.60
40596;BME280;26304;48.794;9.820;2023-04-04T01:17:20;96994.94;;;15.81;47.04
40596;BME280;26304;48.794;9.820;2023-04-04T01:23:03;96985.66;;;16.00;47.14
40596;BME280;26304;48.794;9.820;2023-04-04T01:28:47;96986.84;;;16.50;45.97
40596;BME280;26304;48.794;9.820;2023-04-04T01:34:39;96981.41;;;17.30;44.98
40596;BME280;26304;48.794;9.820;2023-04-04T01:40:25;96984.28;;;18.06;43.34
40596;BME280;26304;48.794;9.820;2023-04-04T01:46:10;96990.69;;;18.59;42.70
40596;BME280;26304;48.794;9.820;2023-04-04T01:51:53;96993.28;;;18.82;42.49
40596;BME280;26304;48.794;9.820;2023-04-04T01:57:36;96990.41;;;18.91;42.44
40596;BME280;26304;48.794;9.820;2023-04-04T02:03:19;96991.53;;;19.20;42.22
40596;BME280;26304;48.794;9.820;2023-04-04T02:09:02;96985.84;;;19.48;41.64
40596;BME280;26304;48.794;9.820;2023-04-04T02:14:45;96995.72;;;19.55;41.46
40596;BME280;26304;48.794;9.820;2023-04-04T02:20:28;96992.03;;;19.63;41.44
40596;BME280;26304;48.794;9.820;2023-04-04T02:26:11;96988.25;;;20.02;41.12
40596;BME280;26304;48.794;9.820;2023-04-04T02:31:53;96987.31;;;20.24;40.83
40596;BME280;26304;48.794;9.820;2023-04-04T02:37:37;96984.75;;;20.35;40.98
40596;BME280;26304;48.794;9.820;2023-04-04T02:43:19;96982.09;;;20.31;41.14
40596;BME280;26304;48.794;9.820;2023-04-04T02:49:02;96982.66;;;20.59;40.45
40596;BME280;26304;48.794;9.820;2023-04-04T02:54:45;96981.69;;;20.85;40.31
40596;BME280;26304;48.794;9.820;2023-04-04T03:00:28;96977.94;;;20.93;40.48
40596;BME280;26304;48.794;9.820;2023-04-04T03:06:10;96979.41;;;20.83;40.42
40596;BME280;26304;48.794;9.820;2023-04-04T03:11:56;96976.13;;;21.04;40.03
40596;BME280;26304;48.794;9.820;2023-04-04T03:17:38;96982.63;;;21.29;39.93
40596;BME280;26304;48.794;9.820;2023-04-04T03:23:21;96981.22;;;21.53;39.64
40596;BME280;26304;48.794;9.820;2023-04-04T03:29:05;96976.19;;;21.30;39.92
40596;BME280;26304;48.794;9.820;2023-04-04T03:34:47;96974.34;;;21.37;39.96
40596;BME280;26304;48.794;9.820;2023-04-04T03:40:30;96966.88;;;21.68;39.59
40596;BME280;26304;48.794;9.820;2023-04-04T03:46:14;96975.22;;;21.70;39.60
40596;BME280;26304;48.794;9.820;2023-04-04T03:51:56;96972.09;;;21.47;40.14
40596;BME280;26304;48.794;9.820;2023-04-04T03:57:39;96972.53;;;21.56;39.91
40596;BME280;26304;48.794;9.820;2023-04-04T04:03:23;96968.41;;;21.84;39.73
40596;BME280;26304;48.794;9.820;2023-04-04T04:09:05;96969.16;;;21.59;40.05
40596;BME280;26304;48.794;9.820;2023-04-04T04:14:47;96976.50;;;21.07;41.13
40596;BME280;26304;48.794;9.820;2023-04-04T04:20:31;96970.97;;;20.63;41.91
40596;BME280;26304;48.794;9.820;2023-04-04T04:26:14;96965.88;;;20.33;42.35
40596;BME280;26304;48.794;9.820;2023-04-04T04:31:56;96965.63;;;20.01;42.99
40596;BME280;26304;48.794;9.820;2023-04-04T04:37:40;96960.00;;;19.65;43.46
40596;BME280;26304;48.794;9.820;2023-04-04T04:43:22;96968.41;;;19.40;43.93
40596;BME280;26304;48.794;9.820;2023-04-04T04:49:05;96965.97;;;19.24;43.79
40596;BME280;26304;48.794;9.820;2023-04-04T04:54:49;96969.91;;;19.37;43.61
40596;BME280;26304;48.794;9.820;2023-04-04T05:00:31;96970.09;;;19.21;44.13
40596;BME280;26304;48.794;9.820;2023-04-04T05:06:14;96981.63;;;19.10;44.49
40596;BME280;26304;48.794;9.820;2023-04-04T05:11:57;96979.97;;;18.98;44.74
40596;BME280;26304;48.794;9.820;2023-04-04T05:17:40;96984.78;;;18.92;44.66
40596;BME280;26304;48.794;9.820;2023-04-04T05:23:22;96986.63;;;18.88;44.28
40596;BME280;26304;48.794;9.820;2023-04-04T05:29:06;97000.22;;;19.20;44.36
40596;BME280;26304;48.794;9.820;2023-04-04T05:34:48;96988.06;;;19.12;43.99
40596;BME280;26304;48.794;9.820;2023-04-04T05:40:31;96990.41;;;18.91;44.32
40596;BME280;26304;48.794;9.820;2023-04-04T05:46:15;96990.00;;;18.62;44.81
40596;BME280;26304;48.794;9.820;2023-04-04T05:51:57;96984.66;;;18.55;45.62
40596;BME280;26304;48.794;9.820;2023-04-04T05:57:46;96995.75;;;18.44;45.96
40596;BME280;26304;48.794;9.820;2023-04-04T06:03:30;96997.19;;;18.38;45.50
40596;BME280;26304;48.794;9.820;2023-04-04T06:09:12;97001.94;;;18.29;45.74
40596;BME280;26304;48.794;9.820;2023-04-04T06:14:54;97002.59;;;18.22;45.11
40596;BME280;26304;48.794;9.820;2023-04-04T06:20:38;96999.19;;;18.22;45.56
40596;BME280;26304;48.794;9.820;2023-04-04T06:26:21;96990.06;;;18.15;45.53
40596;BME280;26304;48.794;9.820;2023-04-04T06:32:04;96989.03;;;17.97;45.67
40596;BME280;26304;48.794;9.820;2023-04-04T06:37:53;97005.09;;;17.92;45.84
40596;BME280;26304;48.794;9.820;2023-04-04T06:43:35;96998.44;;;17.78;46.11
40596;BME280;26304;48.794;9.820;2023-04-04T06:49:18;96996.84;;;17.74;46.35
40596;BME280;26304;48.794;9.820;2023-04-04T06:55:02;96991.94;;;17.72;46.19
40596;BME280;26304;48.794;9.820;2023-04-04T07:00:44;96991.53;;;17.70;46.40
40596;BME280;26304;48.794;9.820;2023-04-04T07:06:27;96985.81;;;17.65;45.75
40596;BME280;26304;48.794;9.820;2023-04-04T07:12:11;96992.50;;;17.62;46.04
40596;BME280;26304;48.794;9.820;2023-04-04T07:17:53;96991.69;;;17.58;46.13
40596;BME280;26304;48.794;9.820;2023-04-04T07:23:36;96997.22;;;17.53;46.54
40596;BME280;26304;48.794;9.820;2023-04-04T07:29:20;96994.19;;;17.51;45.95
40596;BME280;26304;48.794;9.820;2023-04-04T07:35:03;96990.16;;;17.57;46.06
40596;BME280;26304;48.794;9.820;2023-04-04T07:40:47;97000.13;;;17.67;46.06
40596;BME280;26304;48.794;9.820;2023-04-04T07:46:31;96998.31;;;17.71;46.07
40596;BME280;26304;48.794;9.820;2023-04-04T07:52:13;96991.84;;;17.46;46.27
40596;BME280;26304;48.794;9.820;2023-04-04T07:57:56;96993.06;;;17.32;45.56
40596;BME280;26304;48.794;9.820;2023-04-04T08:03:40;96991.06;;;17.25;45.36
40596;BME280;26304;48.794;9.820;2023-04-04T08:09:23;96995.47;;;17.21;45.41
40596;BME280;26304;48.794;9.820;2023-04-04T08:15:06;96993.81;;;17.13;44.86
40596;BME280;26304;48.794;9.820;2023-04-04T08:20:50;96990.72;;;17.08;45.17
40596;BME280;26304;48.794;9.820;2023-04-04T08:26:32;96985.13;;;17.09;44.78
40596;BME280;26304;48.794;9.820;2023-04-04T08:32:15;96992.78;;;17.18;44.99
40596;BME280;26304;48.794;9.820;2023-04-04T08:37:59;96985.19;;;17.32;46.35
40596;BME280;26304;48.794;9.820;2023-04-04T08:43:43;96990.38;;;17.48;46.50
40596;BME280;26304;48.794;9.820;2023-04-04T08:49:28;96989.19;;;17.65;47.14
40596;BME280;26304;48.794;9.820;2023-04-04T08:55:14;96987.59;;;17.60;47.01
40596;BME280;26304;48.794;9.820;2023-04-04T09:00:56;96992.38;;;17.74;46.77
40596;BME280;26304;48.794;9.820;2023-04-04T09:06:39;96991.59;;;17.74;46.66
40596;BME280;26304;48.794;9.820;2023-04-04T09:12:24;96987.91;;;17.78;47.13
40596;BME280;26304;48.794;9.820;2023-04-04T09:18:07;96999.91;;;17.76;46.63
40596;BME280;26304;48.794;9.820;2023-04-04T09:23:57;96998.50;;;17.82;47.31
40596;BME280;26304;48.794;9.820;2023-04-04T09:29:41;96999.66;;;17.85;47.34
40596;BME280;26304;48.794;9.820;2023-04-04T09:35:25;97001.94;;;17.86;47.17
40596;BME280;26304;48.794;9.820;2023-04-04T09:41:08;97000.06;;;17.87;47.27
40596;BME280;26304;48.794;9.820;2023-04-04T09:46:52;97000.25;;;17.94;46.70
40596;BME280;26304;48.794;9.820;2023-04-04T09:52:34;97002.63;;;18.03;47.12
40596;BME280;26304;48.794;9.820;2023-04-04T09:58:19;97004.09;;;18.00;47.10
40596;BME280;26304;48.794;9.820;2023-04-04T10:04:07;97001.81;;;17.99;47.51
40596;BME280;26304;48.794;9.820;2023-04-04T10:09:50;96997.50;;;18.10;47.21
40596;BME280;26304;48.794;9.820;2023-04-04T10:15:34;96999.03;;;18.11;47.16
40596;BME280;26304;48.794;9.820;2023-04-04T10:21:20;96993.38;;;18.12;47.00
40596;BME280;26304;48.794;9.820;2023-04-04T10:27:03;96990.19;;;18.23;46.82
40596;BME280;26304;48.794;9.820;2023-04-04T10:32:51;96982.94;;;18.16;47.16
40596;BME280;26304;48.794;9.820;2023-04-04T10:38:41;96988.72;;;18.25;47.22
40596;BME280;26304;48.794;9.820;2023-04-04T10:44:28;96981.88;;;18.21;47.46
40596;BME280;26304;48.794;9.820;2023-04-04T10:50:12;96976.13;;;18.38;47.01
40596;BME280;26304;48.794;9.820;2023-04-04T10:55:57;96988.13;;;18.36;47.06
40596;BME280;26304;48.794;9.820;2023-04-04T11:01:54;96981.28;;;18.31;47.26
40596;BME280;26304;48.794;9.820;2023-04-04T11:07:38;96980.41;;;18.23;47.09
40596;BME280;26304;48.794;9.820;2023-04-04T11:13:27;96978.56;;;18.24;46.41
40596;BME280;26304;48.794;9.820;2023-04-04T11:19:12;96970.00;;;18.30;46.90
40596;BME280;26304;48.794;9.820;2023-04-04T11:25:24;96978.13;;;18.22;47.25
40596;BME280;26304;48.794;9.820;2023-04-04T11:31:25;96960.41;;;18.19;46.84
40596;BME280;26304;48.794;9.820;2023-04-04T11:37:15;96964.41;;;18.09;46.66
40596;BME280;26304;48.794;9.820;2023-04-04T11:42:59;96966.56;;;18.03;46.18
40596;BME280;26304;48.794;9.820;2023-04-04T11:48:45;96953.00;;;18.01;46.50
40596;BME280;26304;48.794;9.820;2023-04-04T11:54:29;96961.59;;;17.98;46.48
40596;BME280;26304;48.794;9.820;2023-04-04T12:00:27;96959.69;;;17.95;46.19
40596;BME280;26304;48.794;9.820;2023-04-04T12:06:11;96958.50;;;17.92;46.40
40596;BME280;26304;48.794;9.820;2023-04-04T12:11:55;96947.47;;;17.87;46.65
40596;BME280;26304;48.794;9.820;2023-04-04T12:17:38;96943.38;;;18.12;47.45
40596;BME280;26304;48.794;9.820;2023-04-04T12:23:22;96937.50;;;18.19;46.84
40596;BME280;26304;48.794;9.820;2023-04-04T12:29:04;96928.94;;;18.26;46.11
40596;BME280;26304;48.794;9.820;2023-04-04T12:34:47;96936.50;;;18.27;46.54
40596;BME280;26304;48.794;9.820;2023-04-04T12:40:36;96934.56;;;18.24;46.43
40596;BME280;26304;48.794;9.820;2023-04-04T12:46:24;96927.84;;;18.27;46.37
40596;BME280;26304;48.794;9.820;2023-04-04T12:52:15;96923.72;;;18.29;46.05
40596;BME280;26304;48.794;9.820;2023-04-04T12:58:00;96916.59;;;18.30;46.65
40596;BME280;26304;48.794;9.820;2023-04-04T13:03:45;96911.59;;;18.21;46.48
40596;BME280;26304;48.794;9.820;2023-04-04T13:09:28;96912.09;;;18.30;46.29
40596;BME280;26304;48.794;9.820;2023-04-04T13:15:11;96912.84;;;18.31;46.28
40596;BME280;26304;48.794;9.820;2023-04-04T13:20:54;96903.50;;;18.33;46.27
40596;BME280;26304;48.794;9.820;2023-04-04T13:26:36;96897.47;;;18.33;46.10
40596;BME280;26304;48.794;9.820;2023-04-04T13:32:20;96896.81;;;18.40;46.74
40596;BME280;26304;48.794;9.820;2023-04-04T13:38:02;96884.66;;;18.62;47.43
40596;BME280;26304;48.794;9.820;2023-04-04T13:43:45;96876.38;;;18.60;47.14
40596;BME280;26304;48.794;9.820;2023-04-04T13:49:29;96879.28;;;18.51;46.63
40596;BME280;26304;48.794;9.820;2023-04-04T13:55:12;96873.41;;;18.65;46.52
40596;BME280;26304;48.794;9.820;2023-04-04T14:00:55;96872.31;;;18.66;46.82
40596;BME280;26304;48.794;9.820;2023-04-04T14:06:38;96877.97;;;18.68;46.68
40596;BME280;26304;48.794;9.820;2023-04-04T14:12:21;96876.53;;;18.74;47.61
40596;BME280;26304;48.794;9.820;2023-04-04T14:18:03;96867.69;;;18.56;47.52
40596;BME280;26304;48.794;9.820;2023-04-04T14:23:47;96874.72;;;18.48;47.84
40596;BME280;26304;48.794;9.820;2023-04-04T14:29:30;96863.38;;;18.44;47.64
40596;BME280;26304;48.794;9.820;2023-04-04T14:35:14;96864.63;;;18.54;47.15
40596;BME280;26304;48.794;9.820;2023-04-04T14:40:59;96864.44;;;18.69;47.46
40596;BME280;26304;48.794;9.820;2023-04-04T14:46:41;96867.72;;;18.59;47.84
40596;BME280;26304;48.794;9.820;2023-04-04T14:52:24;96870.78;;;18.65;47.15
40596;BME280;26304;48.794;9.820;2023-04-04T14:58:10;96858.16;;;18.78;46.78
40596;BME280;26304;48.794;9.820;2023-04-04T15:03:56;96859.97;;;18.70;46.81
40596;BME280;26304;48.794;9.820;2023-04-04T15:09:38;96854.63;;;18.66;47.00
40596;BME280;26304;48.794;9.820;2023-04-04T15:15:22;96860.75;;;18.74;46.91
40596;BME280;26304;48.794;9.820;2023-04-04T15:21:04;96863.03;;;18.76;46.42
40596;BME280;26304;48.794;9.820;2023-04-04T15:26:47;96864.56;;;18.77;46.61
40596;BME280;26304;48.794;9.820;2023-04-04T15:32:31;96862.69;;;18.81;46.10
40596;BME280;26304;48.794;9.820;2023-04-04T15:38:13;96852.59;;;18.83;45.88
40596;BME280;26304;48.794;9.820;2023-04-04T15:43:55;96854.16;;;18.87;46.54
40596;BME280;26304;48.794;9.820;2023-04-04T15:49:40;96854.03;;;18.80;46.35
40596;BME280;26304;48.794;9.820;2023-04-04T15:55:22;96840.59;;;18.85;46.07
40596;BME280;26304;48.794;9.820;2023-04-04T16:01:06;96836.53;;;18.61;46.81
40596;BME280;26304;48.794;9.820;2023-04-04T16:06:50;96842.69;;;18.76;46.35
40596;BME280;26304;48.794;9.820;2023-04-04T16:12:32;96835.22;;;18.78;46.50
40596;BME280;26304;48.794;9.820;2023-04-04T16:18:14;96834.50;;;18.81;46.42
40596;BME280;26304;48.794;9.820;2023-04-04T16:23:58;96834.41;;;18.74;46.55
40596;BME280;26304;48.794;9.820;2023-04-04T16:29:40;96838.09;;;18.66;46.36
40596;BME280;26304;48.794;9.820;2023-04-04T16:35:23;96828.97;;;18.60;46.56
40596;BME280;26304;48.794;9.820;2023-04-04T16:41:08;96842.47;;;18.55;46.63
40596;BME280;26304;48.794;9.820;2023-04-04T16:46:50;96824.81;;;18.59;46.64
40596;BME280;26304;48.794;9.820;2023-04-04T16:52:33;96818.28;;;18.45;47.38
40596;BME280;26304;48.794;9.820;2023-04-04T16:58:16;96823.47;;;18.38;46.45
40596;BME280;26304;48.794;9.820;2023-04-04T17:03:59;96819.97;;;18.30;46.68
40596;BME280;26304;48.794;9.820;2023-04-04T17:09:42;96825.31;;;18.38;46.18
40596;BME280;26304;48.794;9.820;2023-04-04T17:15:25;96817.78;;;18.36;47.41
40596;BME280;26304;48.794;9.820;2023-04-04T17:21:08;96815.75;;;18.22;46.44
40596;BME280;26304;48.794;9.820;2023-04-04T17:26:51;96818.75;;;18.21;44.94
40596;BME280;26304;48.794;9.820;2023-04-04T17:32:35;96816.38;;;18.15;44.69
40596;BME280;26304;48.794;9.820;2023-04-04T17:38:17;96807.50;;;18.24;43.36
40596;BME280;26304;48.794;9.820;2023-04-04T17:44:00;96807.78;;;18.19;44.82
40596;BME280;26304;48.794;9.820;2023-04-04T17:49:44;96811.47;;;18.14;44.31
40596;BME280;26304;48.794;9.820;2023-04-04T17:55:27;96807.72;;;18.11;44.38
40596;BME280;26304;48.794;9.820;2023-04-04T18:01:10;96802.41;;;18.08;44.75
40596;BME280;26304;48.794;9.820;2023-04-04T18:06:53;96805.28;;;17.99;44.59
40596;BME280;26304;48.794;9.820;2023-04-04T18:12:36;96821.72;;;17.92;44.31
40596;BME280;26304;48.794;9.820;2023-04-04T18:18:19;96811.47;;;17.37;44.08
40596;BME280;26304;48.794;9.820;2023-04-04T18:24:04;96819.06;;;17.42;40.02
40596;BME280;26304;48.794;9.820;2023-04-04T18:29:47;96818.13;;;17.31;37.18
40596;BME280;26304;48.794;9.820;2023-04-04T18:35:29;96816.81;;;17.21;36.00
40596;BME280;26304;48.794;9.820;2023-04-04T18:41:13;96826.44;;;16.91;35.49
40596;BME280;26304;48.794;9.820;2023-04-04T18:46:57;96820.13;;;16.76;35.06
40596;BME280;26304;48.794;9.820;2023-04-04T18:52:44;96823.56;;;16.60;35.14
40596;BME280;26304;48.794;9.820;2023-04-04T18:58:27;96821.63;;;16.38;34.68
40596;BME280;26304;48.794;9.820;2023-04-04T19:04:10;96821.34;;;16.43;35.06
40596;BME280;26304;48.794;9.820;2023-04-04T19:09:54;96824.38;;;16.25;35.81
40596;BME280;26304;48.794;9.820;2023-04-04T19:15:38;96822.72;;;16.17;35.41
40596;BME280;26304;48.794;9.820;2023-04-04T19:21:21;96825.16;;;16.26;35.99
40596;BME280;26304;48.794;9.820;2023-04-04T19:27:03;96830.31;;;16.42;37.49
40596;BME280;26304;48.794;9.820;2023-04-04T19:32:47;96833.38;;;16.44;38.72
40596;BME280;26304;48.794;9.820;2023-04-04T19:38:31;96839.38;;;16.44;39.55
40596;BME280;26304;48.794;9.820;2023-04-04T19:44:17;96845.38;;;16.45;40.16
40596;BME280;26304;48.794;9.820;2023-04-04T19:50:01;96842.75;;;16.45;40.23
40596;BME280;26304;48.794;9.820;2023-04-04T19:55:46;96842.00;;;16.44;41.05
40596;BME280;26304;48.794;9.820;2023-04-04T20:01:29;96845.38;;;16.45;41.03
40596;BME280;26304;48.794;9.820;2023-04-04T20:07:14;96851.75;;;16.44;41.63
40596;BME280;26304;48.794;9.820;2023-04-04T20:12:56;96844.97;;;16.43;42.17
40596;BME280;26304;48.794;9.820;2023-04-04T20:18:40;96846.50;;;16.44;42.17
40596;BME280;26304;48.794;9.820;2023-04-04T20:24:25;96850.97;;;16.43;42.55
40596;BME280;26304;48.794;9.820;2023-04-04T20:30:10;96846.06;;;16.42;42.59
40596;BME280;26304;48.794;9.820;2023-04-04T20:35:53;96853.53;;;16.40;43.32
40596;BME280;26304;48.794;9.820;2023-04-04T20:41:38;96858.03;;;16.39;42.92
40596;BME280;26304;48.794;9.820;2023-04-04T20:47:39;96850.84;;;16.36;43.36
40596;BME280;26304;48.794;9.820;2023-04-04T20:53:23;96856.03;;;16.32;43.31
40596;BME280;26304;48.794;9.820;2023-04-04T20:59:28;96856.78;;;16.33;44.09
40596;BME280;26304;48.794;9.820;2023-04-04T21:05:24;96853.75;;;16.31;43.85
40596;BME280;26304;48.794;9.820;2023-04-04T21:11:08;96857.44;;;16.30;43.41
40596;BME280;26304;48.794;9.820;2023-04-04T21:16:52;96856.78;;;16.33;43.55
40596;BME280;26304;48.794;9.820;2023-04-04T21:22:35;96849.25;;;16.31;43.89
40596;BME280;26304;48.794;9.820;2023-04-04T21:28:17;96856.78;;;16.33;43.94
40596;BME280;26304;48.794;9.820;2023-04-04T21:34:06;96848.16;;;16.32;44.15
40596;BME280;26304;48.794;9.820;2023-04-04T21:39:52;96852.13;;;16.26;43.99
40596;BME280;26304;48.794;9.820;2023-04-04T21:45:38;96849.16;;;16.28;44.39
40596;BME280;26304;48.794;9.820;2023-04-04T21:51:22;96854.69;;;16.23;43.94
40596;BME280;26304;48.794;9.820;2023-04-04T21:57:04;96850.53;;;16.22;44.35
40596;BME280;26304;48.794;9.820;2023-04-04T22:02:47;96852.88;;;16.27;44.01
40596;BME280;26304;48.794;9.820;2023-04-04T22:08:31;96855.03;;;16.21;44.76
40596;BME280;26304;48.794;9.820;2023-04-04T22:14:13;96854.19;;;16.17;44.30
40596;BME280;26304;48.794;9.820;2023-04-04T22:19:57;96850.47;;;16.18;44.39
40596;BME280;26304;48.794;9.820;2023-04-04T22:25:41;96860.84;;;16.14;44.71
40596;BME280;26304;48.794;9.820;2023-04-04T22:31:24;96845.47;;;16.13;44.60
40596;BME280;26304;48.794;9.820;2023-04-04T22:37:06;96842.09;;;16.12;44.46
40596;BME280;26304;48.794;9.820;2023-04-04T22:42:50;96833.88;;;16.14;44.14
40596;BME280;26304;48.794;9.820;2023-04-04T22:48:32;96837.19;;;16.11;44.42
40596;BME280;26304;48.794;9.820;2023-04-04T22:54:21;96834.56;;;16.11;44.79
40596;BME280;26304;48.794;9.820;2023-04-04T23:00:09;96835.69;;;16.10;44.67
40596;BME280;26304;48.794;9.820;2023-04-04T23:05:52;96826.97;;;16.06;44.86
40596;BME280;26304;48.794;9.820;2023-04-04T23:11:35;96829.19;;;16.04;45.03
40596;BME280;26304;48.794;9.820;2023-04-04T23:17:19;96828.75;;;16.02;44.80
40596;BME280;26304;48.794;9.820;2023-04-04T23:23:01;96816.31;;;15.98;44.85
40596;BME280;26304;48.794;9.820;2023-04-04T23:28:43;96812.94;;;15.98;44.82
40596;BME280;26304;48.794;9.820;2023-04-04T23:34:27;96809.13;;;15.95;45.09
40596;BME280;26304;48.794;9.820;2023-04-04T23:40:10;96813.28;;;15.96;44.70
40596;BME280;26304;48.794;9.820;2023-04-04T23:45:53;96810.25;;;15.94;44.52
40596;BME280;26304;48.794;9.820;2023-04-04T23:51:38;96803.47;;;15.93;44.36
40596;BME280;26304;48.794;9.820;2023-04-04T23:57:20;96798.91;;;15.90;45.07
